createdAt,value
2018-09-20T00:01:30.894Z,5.73
2018-09-20T00:03:59.422Z,6.70
2018-09-20T00:06:28.230Z,6.00
2018-09-20T00:08:56.790Z,5.60
2018-09-20T00:11:25.315Z,6.40
2018-09-20T00:13:53.882Z,5.80
2018-09-20T00:16:22.394Z,5.43
2018-09-20T00:18:50.913Z,5.70
2018-09-20T00:21:19.414Z,6.30
2018-09-20T00:23:48.010Z,5.73
2018-09-20T00:26:16.478Z,6.17
2018-09-20T00:28:44.986Z,6.00
2018-09-20T00:31:13.478Z,6.33
2018-09-20T00:33:42.004Z,5.73
2018-09-20T00:36:10.488Z,5.97
2018-09-20T00:38:39.130Z,6.23
2018-09-20T00:41:07.602Z,5.90
2018-09-20T00:43:36.143Z,5.90
2018-09-20T00:46:05.000Z,5.50
2018-09-20T00:48:33.602Z,5.80
2018-09-20T00:51:02.084Z,5.20
2018-09-20T00:53:30.634Z,5.80
2018-09-20T00:55:59.127Z,6.27
2018-09-20T00:58:27.636Z,4.83
2018-09-20T01:00:56.186Z,6.50
2018-09-20T01:03:24.702Z,5.93
2018-09-20T01:05:53.203Z,6.03
2018-09-20T01:08:22.271Z,5.63
2018-09-20T01:10:50.990Z,6.07
2018-09-20T01:13:19.861Z,5.40
2018-09-20T01:15:48.799Z,5.73
2018-09-20T01:18:18.210Z,5.20
2018-09-20T01:20:46.744Z,5.67
2018-09-20T01:23:15.408Z,5.80
2018-09-20T01:25:43.911Z,5.20
2018-09-20T01:28:12.395Z,5.50
2018-09-20T01:30:40.898Z,5.60
2018-09-20T01:33:09.343Z,5.63
2018-09-20T01:35:37.862Z,5.17
2018-09-20T01:38:06.588Z,5.60
2018-09-20T01:40:35.109Z,5.70
2018-09-20T01:43:03.608Z,5.70
2018-09-20T01:45:32.149Z,4.87
2018-09-20T01:48:00.643Z,6.13
2018-09-20T01:50:29.170Z,5.00
2018-09-20T01:52:57.654Z,5.53
2018-09-20T01:55:26.171Z,5.60
2018-09-20T01:57:54.634Z,5.40
2018-09-20T02:00:23.145Z,5.63
2018-09-20T02:02:51.650Z,5.00
2018-09-20T02:05:20.186Z,5.40
2018-09-20T02:07:48.686Z,5.67
2018-09-20T02:10:17.385Z,5.30
2018-09-20T02:12:46.274Z,5.30
2018-09-20T02:15:14.777Z,5.83
2018-09-20T02:17:43.313Z,5.80
2018-09-20T02:20:11.810Z,5.40
2018-09-20T02:22:40.372Z,5.23
2018-09-20T02:25:08.939Z,5.53
2018-09-20T02:27:37.405Z,4.77
2018-09-20T02:30:06.379Z,5.10
2018-09-20T02:32:34.991Z,5.87
2018-09-20T02:35:04.027Z,6.00
2018-09-20T02:37:32.869Z,5.13
2018-09-20T02:40:01.402Z,5.67
2018-09-20T02:42:29.883Z,5.37
2018-09-20T02:44:58.574Z,6.73
2018-09-20T02:47:27.082Z,5.60
2018-09-20T02:49:55.546Z,5.57
2018-09-20T02:52:24.042Z,5.40
2018-09-20T02:54:52.563Z,4.80
2018-09-20T02:57:21.095Z,5.47
2018-09-20T02:59:49.566Z,6.20
2018-09-20T03:02:18.056Z,5.20
2018-09-20T03:04:46.521Z,5.17
2018-09-20T03:07:15.037Z,5.20
2018-09-20T03:09:43.785Z,6.00
2018-09-20T03:12:12.342Z,6.00
2018-09-20T03:14:40.829Z,5.10
2018-09-20T03:17:09.343Z,5.33
2018-09-20T03:19:37.812Z,5.47
2018-09-20T03:22:06.407Z,5.67
2018-09-20T03:24:34.905Z,5.90
2018-09-20T03:27:03.644Z,5.33
2018-09-20T03:29:32.110Z,5.70
2018-09-20T03:32:00.626Z,5.67
2018-09-20T03:34:29.498Z,5.60
2018-09-20T03:36:58.972Z,5.60
2018-09-20T03:39:27.667Z,5.50
2018-09-20T03:41:56.180Z,4.83
2018-09-20T03:44:24.693Z,5.83
2018-09-20T03:46:53.210Z,5.87
2018-09-20T03:49:21.694Z,5.20
2018-09-20T03:51:50.310Z,6.27
2018-09-20T03:54:18.958Z,5.57
2018-09-20T03:56:47.538Z,4.93
2018-09-20T03:59:16.026Z,5.40
2018-09-20T04:01:44.726Z,5.10
2018-09-20T04:04:13.209Z,5.20
2018-09-20T04:06:41.987Z,6.50
2018-09-20T04:09:12.124Z,6.07
2018-09-20T04:11:41.098Z,6.27
2018-09-20T04:14:09.593Z,6.03
2018-09-20T04:16:38.153Z,5.93
2018-09-20T04:19:06.677Z,6.37
2018-09-20T04:21:36.221Z,6.27
2018-09-20T04:24:06.072Z,6.03
2018-09-20T04:26:34.839Z,5.80
2018-09-20T04:29:03.353Z,5.33
2018-09-20T04:31:32.392Z,4.87
2018-09-20T04:34:01.798Z,5.73
2018-09-20T04:36:31.207Z,6.03
2018-09-20T04:39:00.262Z,5.70
2018-09-20T04:41:29.559Z,5.10
2018-09-20T04:43:58.118Z,5.97
2018-09-20T04:46:26.586Z,5.60
2018-09-20T04:48:55.770Z,5.90
2018-09-20T04:51:25.008Z,5.67
2018-09-20T04:53:53.722Z,6.07
2018-09-20T04:56:22.190Z,5.60
2018-09-20T04:58:50.823Z,6.30
2018-09-20T05:01:19.297Z,6.70
2018-09-20T05:03:47.906Z,6.70
2018-09-20T05:06:16.451Z,6.97
2018-09-20T05:08:45.579Z,6.90
2018-09-20T05:11:14.920Z,6.80
2018-09-20T05:13:43.446Z,6.90
2018-09-20T05:16:11.954Z,11.30
2018-09-20T05:18:40.903Z,8.90
2018-09-20T05:21:09.414Z,8.83
2018-09-20T05:23:38.076Z,8.40
2018-09-20T05:26:06.588Z,6.70
2018-09-20T05:28:35.207Z,7.00
2018-09-20T05:31:03.903Z,7.63
2018-09-20T05:33:32.432Z,10.83
2018-09-20T05:36:01.475Z,14.03
2018-09-20T05:38:30.018Z,13.40
2018-09-20T05:40:58.553Z,13.27
2018-09-20T05:43:27.304Z,12.90
2018-09-20T05:45:56.739Z,11.97
2018-09-20T05:48:25.246Z,15.63
2018-09-20T05:50:53.826Z,14.30
2018-09-20T05:53:22.318Z,14.70
2018-09-20T05:55:50.846Z,13.53
2018-09-20T05:58:19.326Z,15.00
2018-09-20T06:00:48.380Z,14.63
2018-09-20T06:03:16.867Z,15.33
2018-09-20T06:06:14.560Z,15.47
2018-09-20T06:08:43.286Z,14.47
2018-09-20T06:11:11.820Z,15.77
2018-09-20T06:13:40.435Z,15.67
2018-09-20T06:16:09.007Z,15.70
2018-09-20T06:18:37.735Z,15.77
2018-09-20T06:21:06.296Z,15.90
2018-09-20T06:23:37.328Z,16.00
2018-09-20T06:26:06.615Z,14.40
2018-09-20T06:28:35.144Z,14.80
2018-09-20T06:31:03.728Z,14.27
2018-09-20T06:33:32.242Z,15.30
2018-09-20T06:36:00.895Z,15.20
2018-09-20T06:38:29.478Z,14.60
2018-09-20T06:40:57.986Z,15.90
2018-09-20T06:43:27.571Z,15.57
2018-09-20T06:45:56.395Z,14.90
2018-09-20T06:48:25.394Z,15.80
2018-09-20T06:50:53.955Z,16.77
2018-09-20T06:53:22.597Z,15.17
2018-09-20T06:55:51.677Z,15.43
2018-09-20T06:58:20.221Z,16.47
2018-09-20T07:00:48.872Z,16.30
2018-09-20T07:03:17.404Z,15.77
2018-09-20T07:05:45.895Z,14.50
2018-09-20T07:08:15.347Z,15.37
2018-09-20T07:10:43.878Z,16.27
2018-09-20T07:13:12.414Z,14.50
2018-09-20T07:15:40.976Z,14.90
2018-09-20T07:18:09.522Z,13.77
2018-09-20T07:20:38.031Z,15.03
2018-09-20T07:23:06.978Z,14.90
2018-09-20T07:25:35.501Z,14.20
2018-09-20T07:28:03.998Z,15.07
2018-09-20T07:30:32.561Z,13.53
2018-09-20T07:33:01.073Z,12.67
2018-09-20T07:35:29.610Z,14.00
2018-09-20T07:37:58.127Z,13.23
2018-09-20T07:40:27.172Z,13.90
2018-09-20T07:42:55.655Z,12.57
2018-09-20T07:45:24.205Z,14.70
2018-09-20T07:47:52.718Z,13.60
2018-09-20T07:50:21.252Z,15.33
2018-09-20T07:52:49.767Z,13.97
2018-09-20T07:55:18.313Z,15.50
2018-09-20T07:57:46.814Z,13.40
2018-09-20T08:00:15.682Z,12.63
2018-09-20T08:02:44.181Z,13.53
2018-09-20T08:05:12.751Z,13.33
2018-09-20T08:07:41.283Z,13.07
2018-09-20T08:10:10.070Z,13.40
2018-09-20T08:12:38.562Z,13.90
2018-09-20T08:15:07.519Z,13.40
2018-09-20T08:17:36.178Z,13.17
2018-09-20T08:20:05.119Z,12.87
2018-09-20T08:22:33.637Z,12.57
2018-09-20T08:25:02.258Z,12.80
2018-09-20T08:27:30.849Z,12.17
2018-09-20T08:29:59.422Z,13.03
2018-09-20T08:32:27.943Z,12.17
2018-09-20T08:34:56.811Z,10.87
2018-09-20T08:37:25.516Z,10.90
2018-09-20T08:39:54.029Z,9.87
2018-09-20T08:42:22.609Z,11.27
2018-09-20T08:44:51.357Z,10.63
2018-09-20T08:47:19.854Z,10.17
2018-09-20T08:49:49.636Z,10.23
2018-09-20T08:52:18.211Z,12.43
2018-09-20T08:54:46.760Z,10.30
2018-09-20T08:57:15.359Z,9.77
2018-09-20T08:59:44.213Z,9.37
2018-09-20T09:02:13.488Z,8.00
2018-09-20T09:04:42.444Z,6.43
2018-09-20T09:07:10.999Z,6.33
2018-09-20T09:09:40.029Z,6.10
2018-09-20T09:12:08.551Z,7.37
2018-09-20T09:14:37.126Z,6.03
2018-09-20T09:17:05.723Z,6.37
2018-09-20T09:19:34.281Z,7.20
2018-09-20T09:22:03.088Z,6.10
2018-09-20T09:24:31.860Z,6.17
2018-09-20T09:27:00.366Z,6.17
2018-09-20T09:29:28.936Z,5.50
2018-09-20T09:31:57.456Z,5.90
2018-09-20T09:34:26.152Z,6.10
2018-09-20T09:36:54.867Z,5.80
2018-09-20T09:39:23.482Z,5.53
2018-09-20T09:41:52.003Z,6.70
2018-09-20T09:44:20.578Z,5.30
2018-09-20T09:46:49.372Z,7.10
2018-09-20T09:49:18.129Z,5.70
2018-09-20T09:51:46.653Z,5.97
2018-09-20T09:54:15.284Z,5.70
2018-09-20T09:56:44.334Z,5.87
2018-09-20T09:59:12.892Z,5.37
2018-09-20T10:01:41.573Z,5.93
2018-09-20T10:04:10.124Z,5.77
2018-09-20T10:06:38.759Z,5.70
2018-09-20T10:09:09.569Z,5.20
2018-09-20T10:11:38.350Z,5.90
2018-09-20T10:14:07.065Z,6.10
2018-09-20T10:16:36.171Z,7.90
2018-09-20T10:19:04.908Z,6.23
2018-09-20T10:21:33.535Z,5.60
2018-09-20T10:24:02.463Z,5.33
2018-09-20T10:26:31.020Z,5.37
2018-09-20T10:28:59.560Z,6.57
2018-09-20T10:31:28.152Z,5.87
2018-09-20T10:33:57.621Z,5.67
2018-09-20T10:36:26.402Z,5.20
2018-09-20T10:38:55.127Z,5.07
2018-09-20T10:41:23.698Z,5.70
2018-09-20T10:43:52.240Z,5.97
2018-09-20T10:46:20.889Z,6.47
2018-09-20T10:48:49.403Z,5.40
2018-09-20T10:51:17.934Z,5.43
2018-09-20T10:53:46.626Z,5.77
2018-09-20T10:56:15.398Z,6.10
2018-09-20T10:58:43.946Z,6.23
2018-09-20T11:01:12.574Z,5.50
2018-09-20T11:03:41.528Z,6.07
2018-09-20T11:06:10.092Z,6.10
2018-09-20T11:08:38.768Z,6.23
2018-09-20T11:11:07.536Z,4.83
2018-09-20T11:13:35.902Z,4.90
2018-09-20T11:16:04.457Z,5.53
2018-09-20T11:18:33.238Z,5.80
2018-09-20T11:21:01.862Z,5.13
2018-09-20T11:23:30.446Z,5.23
2018-09-20T11:25:59.078Z,4.87
2018-09-20T11:28:27.547Z,5.60
2018-09-20T11:30:56.160Z,5.80
2018-09-20T11:33:24.731Z,5.67
2018-09-20T11:35:53.235Z,5.03
2018-09-20T11:38:21.808Z,5.47
2018-09-20T11:40:50.334Z,6.23
2018-09-20T11:43:18.922Z,5.20
2018-09-20T11:45:47.484Z,5.07
2018-09-20T11:48:16.385Z,5.37
2018-09-20T11:50:44.942Z,6.33
2018-09-20T11:53:13.545Z,5.50
2018-09-20T11:55:42.103Z,5.43
2018-09-20T11:58:10.762Z,5.77
2018-09-20T12:00:39.540Z,6.90
2018-09-20T12:03:08.076Z,6.07
2018-09-20T12:05:36.700Z,6.30
2018-09-20T12:08:05.190Z,4.80
2018-09-20T12:10:33.739Z,5.07
2018-09-20T12:13:02.280Z,5.10
2018-09-20T12:15:30.960Z,5.70
2018-09-20T12:17:59.754Z,5.03
2018-09-20T12:20:28.366Z,5.47
2018-09-20T12:22:57.302Z,5.07
2018-09-20T12:25:26.210Z,5.37
2018-09-20T12:27:54.765Z,5.00
2018-09-20T12:30:23.428Z,5.20
2018-09-20T12:32:52.057Z,5.70
2018-09-20T12:35:20.987Z,4.50
2018-09-20T12:37:49.580Z,5.23
2018-09-20T12:40:18.344Z,5.77
2018-09-20T12:42:47.966Z,4.90
2018-09-20T12:45:16.565Z,5.13
2018-09-20T12:47:45.327Z,5.40
2018-09-20T12:50:13.979Z,4.70
2018-09-20T12:52:42.723Z,6.20
2018-09-20T12:55:11.292Z,4.97
2018-09-20T12:57:39.908Z,5.30
2018-09-20T13:00:10.115Z,5.10
2018-09-20T13:02:38.786Z,5.13
2018-09-20T13:05:07.560Z,5.70
2018-09-20T13:07:36.085Z,5.53
2018-09-20T13:10:05.147Z,4.90
2018-09-20T13:12:33.687Z,5.57
2018-09-20T13:15:02.497Z,4.80
2018-09-20T13:17:31.771Z,5.60
2018-09-20T13:20:00.359Z,5.30
2018-09-20T13:22:28.880Z,5.70
2018-09-20T13:24:57.694Z,6.00
2018-09-20T13:27:26.267Z,4.70
2018-09-20T13:29:54.883Z,5.97
2018-09-20T13:32:23.481Z,4.73
2018-09-20T13:34:52.041Z,5.13
2018-09-20T13:37:21.522Z,5.20
2018-09-20T13:39:50.472Z,4.47
2018-09-20T13:42:19.095Z,5.63
2018-09-20T13:44:47.616Z,4.73
2018-09-20T13:47:16.585Z,4.97
2018-09-20T13:49:45.120Z,4.97
2018-09-20T13:52:13.751Z,5.03
2018-09-20T13:54:42.589Z,5.00
2018-09-20T13:57:11.170Z,5.37
2018-09-20T13:59:40.035Z,5.47
2018-09-20T14:02:09.407Z,4.73
2018-09-20T14:04:37.911Z,5.40
2018-09-20T14:07:06.972Z,5.37
2018-09-20T14:09:35.591Z,5.00
2018-09-20T14:12:04.223Z,4.50
2018-09-20T14:14:32.771Z,5.60
2018-09-20T14:17:01.319Z,4.90
2018-09-20T14:19:29.849Z,5.33
2018-09-20T14:21:58.626Z,4.80
2018-09-20T14:24:27.379Z,5.67
2018-09-20T14:26:56.071Z,6.50
2018-09-20T14:29:24.579Z,5.10
2018-09-20T14:31:53.483Z,6.80
2018-09-20T14:34:22.041Z,6.13
2018-09-20T14:36:50.572Z,5.17
2018-09-20T14:39:20.167Z,6.17
2018-09-20T14:41:48.859Z,5.70
2018-09-20T14:44:18.232Z,4.50
2018-09-20T14:46:47.001Z,6.23
2018-09-20T14:49:15.552Z,5.90
2018-09-20T14:51:44.203Z,6.70
2018-09-20T14:54:12.779Z,5.40
2018-09-20T14:56:41.333Z,5.83
2018-09-20T14:59:10.034Z,5.67
2018-09-20T15:01:38.532Z,5.83
2018-09-20T15:04:07.222Z,6.63
2018-09-20T15:06:35.829Z,7.53
2018-09-20T15:09:07.310Z,8.17
2018-09-20T15:11:35.920Z,6.80
2018-09-20T15:14:04.444Z,6.60
2018-09-20T15:16:33.161Z,6.97
2018-09-20T15:19:02.012Z,5.20
2018-09-20T15:21:31.153Z,6.70
2018-09-20T15:23:59.687Z,5.70
2018-09-20T15:26:28.227Z,5.80
2018-09-20T15:28:56.861Z,5.90
2018-09-20T15:31:25.476Z,7.47
2018-09-20T15:33:54.071Z,6.73
2018-09-20T15:36:22.863Z,6.47
2018-09-20T15:38:51.895Z,5.93
2018-09-20T15:41:20.860Z,5.73
2018-09-20T15:43:49.374Z,7.03
2018-09-20T15:46:18.079Z,6.40
2018-09-20T15:48:47.308Z,6.13
2018-09-20T15:51:16.182Z,6.53
2018-09-20T15:53:44.686Z,11.10
2018-09-20T15:56:13.762Z,10.67
2018-09-20T15:58:42.294Z,8.30
2018-09-20T16:01:12.355Z,7.33
2018-09-20T16:03:41.589Z,6.37
2018-09-20T16:06:10.989Z,5.83
2018-09-20T16:08:39.596Z,5.63
2018-09-20T16:11:09.010Z,6.10
2018-09-20T16:13:39.139Z,7.13
2018-09-20T16:16:08.056Z,6.17
2018-09-20T16:18:36.578Z,6.20
2018-09-20T16:21:05.171Z,5.93
2018-09-20T16:23:35.650Z,6.23
2018-09-20T16:26:04.150Z,6.63
2018-09-20T16:28:44.264Z,7.70
2018-09-20T16:31:39.341Z,5.67
2018-09-20T16:36:26.807Z,5.70
2018-09-20T16:39:00.812Z,6.43
2018-09-20T16:41:36.518Z,5.87
2018-09-20T16:44:06.262Z,5.80
2018-09-20T16:46:34.826Z,5.40
2018-09-20T16:49:03.426Z,5.73
2018-09-20T16:51:31.981Z,6.83
2018-09-20T16:54:00.559Z,5.30
2018-09-20T16:56:29.348Z,5.60
2018-09-20T16:58:57.893Z,9.37
2018-09-20T17:01:26.528Z,9.20
2018-09-20T17:03:55.035Z,6.60
2018-09-20T17:06:24.363Z,5.40
2018-09-20T17:08:53.496Z,6.00
2018-09-20T17:11:22.109Z,6.90
2018-09-20T17:13:50.790Z,6.87
2018-09-20T17:16:19.378Z,6.00
2018-09-20T17:18:47.974Z,5.93
2018-09-20T17:21:16.683Z,7.17
2018-09-20T17:23:45.354Z,7.37
2018-09-20T17:26:14.034Z,5.97
2018-09-20T17:28:42.608Z,6.40
2018-09-20T17:31:11.273Z,5.97
2018-09-20T17:33:39.805Z,6.70
2018-09-20T17:36:09.033Z,5.47
2018-09-20T17:38:38.971Z,6.07
2018-09-20T17:41:12.538Z,5.97
2018-09-20T17:43:45.097Z,6.73
2018-09-20T17:46:17.384Z,6.10
2018-09-20T17:48:46.545Z,6.10
2018-09-20T17:51:19.926Z,6.40
2018-09-20T17:53:49.298Z,7.17
2018-09-20T17:56:19.388Z,6.50
2018-09-20T17:58:49.106Z,5.80
2018-09-20T18:01:18.215Z,6.60
2018-09-20T18:03:46.870Z,5.63
2018-09-20T18:06:18.303Z,6.00
2018-09-20T18:08:47.070Z,7.27
2018-09-20T18:11:15.709Z,8.47
2018-09-20T18:13:44.278Z,6.23
2018-09-20T18:16:12.827Z,6.40
2018-09-20T18:18:41.563Z,6.37
2018-09-20T18:21:10.291Z,6.80
2018-09-20T18:23:38.961Z,6.80
2018-09-20T18:26:07.828Z,7.10
2018-09-20T18:28:37.355Z,8.00
2018-09-20T18:31:06.319Z,6.17
2018-09-20T18:33:34.903Z,6.90
2018-09-20T18:36:04.053Z,5.80
2018-09-20T18:38:32.640Z,7.20
2018-09-20T18:41:01.366Z,6.93
2018-09-20T18:43:30.056Z,6.73
2018-09-20T18:45:58.754Z,7.10
2018-09-20T18:48:27.344Z,7.23
2018-09-20T18:50:56.097Z,6.60
2018-09-20T18:53:24.815Z,6.90
2018-09-20T18:55:53.467Z,6.60
2018-09-20T18:58:22.076Z,6.57
2018-09-20T19:00:52.511Z,7.67
2018-09-20T19:03:22.358Z,7.60
2018-09-20T19:05:51.554Z,6.93
2018-09-20T19:08:20.863Z,7.83
2018-09-20T19:10:49.485Z,7.17
2018-09-20T19:13:18.099Z,7.40
2018-09-20T19:15:46.646Z,7.47
2018-09-20T19:18:15.764Z,8.00
2018-09-20T19:20:44.426Z,7.20
2018-09-20T19:23:13.006Z,7.37
2018-09-20T19:25:42.321Z,8.00
2018-09-20T19:28:12.256Z,7.70
2018-09-20T19:30:40.819Z,7.63
2018-09-20T19:33:10.222Z,7.37
2018-09-20T19:35:39.392Z,7.73
2018-09-20T19:38:08.196Z,7.20
2018-09-20T19:40:36.859Z,7.70
2018-09-20T19:43:05.465Z,7.97
2018-09-20T19:45:34.261Z,8.30
2018-09-20T19:48:02.814Z,7.60
2018-09-20T19:50:31.394Z,7.87
2018-09-20T19:53:00.225Z,7.67
2018-09-20T19:55:28.873Z,8.53
2018-09-20T19:57:57.691Z,6.70
2018-09-20T20:00:26.258Z,8.63
2018-09-20T20:02:55.196Z,8.83
2018-09-20T20:05:23.951Z,14.00
2018-09-20T20:07:52.655Z,6.53
2018-09-20T20:10:21.463Z,6.67
2018-09-20T20:12:50.036Z,7.67
2018-09-20T20:15:19.192Z,7.70
2018-09-20T20:17:47.839Z,7.33
2018-09-20T20:20:16.457Z,6.57
2018-09-20T20:22:45.054Z,7.10
2018-09-20T20:25:13.674Z,7.53
2018-09-20T20:27:42.426Z,7.50
2018-09-20T20:30:10.967Z,7.77
2018-09-20T20:32:39.579Z,7.23
2018-09-20T20:35:08.145Z,8.13
2018-09-20T20:37:36.764Z,7.23
2018-09-20T20:40:05.688Z,7.80
2018-09-20T20:42:34.278Z,7.70
2018-09-20T20:45:04.064Z,7.60
2018-09-20T20:47:32.629Z,8.17
2018-09-20T20:50:01.153Z,6.83
2018-09-20T20:52:30.009Z,7.10
2018-09-20T20:54:58.579Z,7.10
2018-09-20T20:57:28.037Z,7.10
2018-09-20T20:59:56.655Z,7.10
2018-09-20T21:02:25.157Z,8.00
2018-09-20T21:04:53.703Z,7.60
2018-09-20T21:07:23.033Z,8.20
2018-09-20T21:09:51.597Z,8.23
2018-09-20T21:12:20.644Z,7.10
2018-09-20T21:14:49.202Z,7.30
2018-09-20T21:17:17.789Z,7.50
2018-09-20T21:19:46.715Z,7.50
2018-09-20T21:22:15.461Z,6.60
2018-09-20T21:24:44.083Z,8.13
2018-09-20T21:27:12.805Z,7.57
2018-09-20T21:29:41.359Z,7.10
2018-09-20T21:32:09.985Z,6.93
2018-09-20T21:34:38.698Z,8.03
2018-09-20T21:37:07.234Z,7.50
2018-09-20T21:39:36.127Z,8.40
2018-09-20T21:42:04.731Z,8.23
2018-09-20T21:44:34.217Z,7.07
2018-09-20T21:47:02.817Z,8.40
2018-09-20T21:49:31.523Z,8.50
2018-09-20T21:52:00.808Z,8.80
2018-09-20T21:54:29.359Z,7.63
2018-09-20T21:56:57.868Z,7.80
2018-09-20T21:59:26.482Z,7.23
2018-09-20T22:02:01.697Z,8.67
2018-09-20T22:04:30.844Z,7.60
2018-09-20T22:07:00.334Z,6.63
2018-09-20T22:09:29.473Z,7.30
2018-09-20T22:11:57.982Z,6.30
2018-09-20T22:14:26.603Z,7.33
2018-09-20T22:16:55.701Z,6.37
2018-09-20T22:19:24.322Z,8.13
2018-09-20T22:21:52.935Z,6.90
2018-09-20T22:24:22.444Z,7.97
2018-09-20T22:26:51.167Z,7.97
2018-09-20T22:29:20.324Z,7.50
2018-09-20T22:31:48.816Z,12.50
2018-09-20T22:34:17.358Z,6.83
2018-09-20T22:36:45.902Z,7.00
2018-09-20T22:39:14.452Z,7.37
2018-09-20T22:41:42.947Z,7.43
2018-09-20T22:44:12.066Z,7.57
2018-09-20T22:46:41.116Z,7.40
2018-09-20T22:49:09.855Z,7.17
2018-09-20T22:51:38.395Z,7.53
2018-09-20T22:54:06.979Z,6.93
2018-09-20T22:56:35.499Z,7.60
2018-09-20T22:59:04.019Z,7.90
2018-09-20T23:01:32.670Z,7.77
2018-09-20T23:04:01.236Z,7.37
2018-09-20T23:06:29.739Z,6.57
2018-09-20T23:08:58.621Z,8.20
2018-09-20T23:11:27.286Z,8.00
2018-09-20T23:13:55.882Z,7.10
2018-09-20T23:16:24.594Z,7.43
2018-09-20T23:18:59.386Z,6.83
2018-09-20T23:21:27.923Z,7.47
2018-09-20T23:23:56.504Z,6.90
2018-09-20T23:26:25.030Z,6.87
2018-09-20T23:28:53.657Z,7.20
2018-09-20T23:31:22.173Z,7.00
2018-09-20T23:33:51.930Z,8.07
2018-09-20T23:36:20.577Z,6.67
2018-09-20T23:38:49.190Z,7.40
2018-09-20T23:41:17.725Z,7.83
2018-09-20T23:43:46.402Z,7.70
2018-09-20T23:46:16.156Z,8.20
2018-09-20T23:48:44.640Z,7.00
2018-09-20T23:51:13.175Z,7.43
2018-09-20T23:53:41.993Z,7.33
2018-09-20T23:56:10.594Z,8.30
2018-09-20T23:58:39.342Z,7.57
